• Join FlightAware (Why Join?)
  • Login
  • US Flag 
05:09AM EDT


 

Airport Tracker/Info


-or-


 

Live Flight TrackerFlight Track Log ✈ SKW6345 ✈ 08-Aug-2013 ✈ KBZN - KSFO

Flight Track Log - Related Links

Times and Time Zones

All times are in EDT time to prevent confusion due to time zone crossing. See the SKW6345 flight status page for this flight to view local times or setup timezone preferences in your user account.

Time Position Orientation Groundspeed Altitude Reporting Facility
EDT Latitude Longitude Course Direction KTS MPH feet Rate Location/Type
03:26PM 45.3661 -111.8375 230° Southwest  Level Estimated
03:27PM 45.2971 -111.9508 229° Southwest  Level Estimated
03:27PM 45.8033 -111.2006 229° Southwest 190 219 5,500  Level Salt Lake Center
03:28PM 45.2280 -112.0638 229° Southwest  Level Estimated
03:28PM 45.7747 -111.2975 247° West 237 273 7,900  Level Salt Lake Center
03:29PM 45.1534 -112.1853 229° Southwest  Level Estimated
03:29PM 45.7433 -111.3869 243° Southwest 242 278 9,900  Level Salt Lake Center
03:30PM 45.0787 -112.3064 229° Southwest  Level Estimated
03:30PM 45.7289 -111.4906 259° West 261 300 11,700  Level Salt Lake Center
03:31PM 45.0039 -112.4272 229° Southwest  Level Estimated
03:31PM 45.7422 -111.6033 280° West 279 321 13,400  Level Salt Lake Center
03:32PM 44.9290 -112.5477 229° Southwest  Level Estimated
03:32PM 45.7617 -111.7189 284° West 295 339 15,200  Level Salt Lake Center
03:33PM 45.7886 -111.8347 288° West 304 350 16,800 1,680 Climbing Salt Lake Center
03:34PM 45.8197 -111.9769 287° West 310 357 18,700 1,620 Climbing Salt Lake Center
03:35PM 45.8458 -112.0967 287° West 314 361 20,200 1,320 Climbing Salt Lake Center
03:36PM 45.8364 -112.2167 264° West 321 369 21,500 1,200 Climbing Salt Lake Center
03:37PM 45.7825 -112.3200 233° Southwest 324 373 22,700 1,020 Climbing Salt Lake Center
03:38PM 45.7289 -112.4239 234° Southwest 327 376 23,700 840 Climbing Salt Lake Center
03:39PM 45.6708 -112.5347 233° Southwest 343 395 24,500 780 Climbing Salt Lake Center
03:40PM 45.5997 -112.6681 233° Southwest 351 404 25,400 720 Climbing Salt Lake Center
03:41PM 45.5375 -112.7842 233° Southwest 366 421 26,000 540 Climbing Salt Lake Center
03:42PM 45.4756 -112.9047 234° Southwest 376 433 26,600 540 Climbing Salt Lake Center
03:43PM 45.4100 -113.0244 232° Southwest 382 440 27,200 540 Climbing Salt Lake Center
03:44PM 45.3442 -113.1497 233° Southwest 388 447 27,800 600 Climbing Salt Lake Center
03:45PM 45.2700 -113.2869 233° Southwest 392 451 28,500 600 Climbing Salt Lake Center
03:46PM 45.2042 -113.4067 232° Southwest 400 460 29,100 540 Climbing Salt Lake Center
03:47PM 45.1292 -113.5469 233° Southwest 402 463 29,700 480 Climbing Salt Lake Center
03:48PM 45.0636 -113.6658 232° Southwest 402 463 30,200 540 Climbing Salt Lake Center
03:50PM 44.9881 -113.8047 232° Southwest 400 460 30,900 600 Climbing Salt Lake Center
03:51PM 44.9228 -113.9228 232° Southwest 400 460 31,500 480 Climbing Salt Lake Center
03:52PM 44.8522 -114.0528 233° Southwest 396 456 32,000 240 Climbing Salt Lake Center
03:53PM 44.7744 -114.1900 231° Southwest 401 461 32,000  Level Salt Lake Center
03:54PM 44.7075 -114.3125 232° Southwest 409 471 32,000 240 Level Salt Lake Center
03:55PM 44.6264 -114.4553 231° Southwest 416 479 32,600 660 Climbing Salt Lake Center
03:56PM 44.5586 -114.5747 231° Southwest 409 471 33,400 660 Climbing Salt Lake Center
03:57PM 44.4942 -114.6897 232° Southwest 397 457 34,000 240 Climbing Salt Lake Center
03:58PM 44.4194 -114.8250 232° Southwest 392 451 34,000  Level Salt Lake Center
03:59PM 44.3514 -114.9428 231° Southwest 401 461 34,000  Level Salt Lake Center
04:00PM 44.2708 -115.0814 231° Southwest 408 470 34,000 60 Level Salt Lake Center
04:01PM 44.2003 -115.2011 231° Southwest 415 478 34,200 300 Climbing Salt Lake Center
04:02PM 44.1219 -115.3383 232° Southwest 404 465 34,700 480 Climbing Salt Lake Center
04:03PM 44.0550 -115.4533 231° Southwest 400 460 35,200 420 Climbing Salt Lake Center
04:04PM 43.9775 -115.5856 231° Southwest 395 455 35,600 300 Climbing Salt Lake Center
04:05PM 43.9114 -115.6989 231° Southwest 394 453 35,900 180 Climbing Salt Lake Center
04:06PM 43.8456 -115.8119 231° Southwest 394 453 36,000  Climbing Salt Lake Center
04:07PM 43.7672 -115.9450 231° Southwest 399 459 36,000  Level Salt Lake Center
04:08PM 43.6994 -116.0603 231° Southwest 403 464 36,000  Level Salt Lake Center
04:09PM 43.6194 -116.1950 231° Southwest 404 465 36,000  Level Salt Lake Center
04:10PM 43.5503 -116.3111 231° Southwest 408 470 36,000  Level Salt Lake Center
04:11PM 43.4689 -116.4442 230° Southwest 405 466 36,000  Level Salt Lake Center
04:12PM 43.4008 -116.5592 231° Southwest 404 465 36,000  Level Salt Lake Center
04:13PM 43.3197 -116.6914 230° Southwest 405 466 36,000  Level Salt Lake Center
04:14PM 43.2503 -116.8056 230° Southwest 408 470 36,000  Level Salt Lake Center
04:15PM 43.1694 -116.9386 230° Southwest 406 467 36,000  Level Salt Lake Center
04:16PM 43.1003 -117.0528 230° Southwest 407 468 36,000  Level Salt Lake Center
04:17PM 43.0300 -117.1653 230° Southwest 407 468 36,000  Level Salt Lake Center
04:18PM 42.9478 -117.2989 230° Southwest 410 472 36,000  Level Salt Lake Center
04:20PM 42.8769 -117.4117 229° Southwest 410 472 36,000  Level Salt Lake Center
04:21PM 42.7950 -117.5425 230° Southwest 406 467 36,000  Level Salt Lake Center
04:22PM 42.7247 -117.6556 230° Southwest 408 470 36,000  Level Salt Lake Center
04:23PM 42.6417 -117.7861 229° Southwest 407 468 36,000  Level Salt Lake Center
04:24PM 42.5625 -117.8858 223° Southwest 406 467 36,000  Level Salt Lake Center
04:25PM 42.4494 -117.9564 205° Southwest 402 463 36,000  Level Salt Lake Center
04:26PM 42.3522 -118.0153 204° Southwest 400 460 36,000  Level Salt Lake Center
04:27PM 42.2389 -118.0844 204° Southwest 400 460 36,000  Level Salt Lake Center
04:28PM 42.1472 -118.1408 205° Southwest 396 456 36,000  Level Salt Lake Center
04:29PM 42.0333 -118.2086 204° Southwest 401 461 36,000  Level Salt Lake Center
04:30PM 41.9364 -118.2675 204° Southwest 400 460 36,000  Level Salt Lake Center
04:31PM 41.8225 -118.3353 204° Southwest 401 461 36,000  Level Salt Lake Center
04:32PM 41.7253 -118.3939 204° Southwest 401 461 36,000  Level Salt Lake Center
04:33PM 41.6119 -118.4606 204° Southwest 398 458 36,000  Level Salt Lake Center
04:34PM 41.5156 -118.5186 204° Southwest 398 458 36,000  Level Salt Lake Center
04:35PM 41.4019 -118.5847 204° Southwest 398 458 36,000  Level Salt Lake Center
04:36PM 41.3042 -118.6431 204° Southwest 400 460 36,000  Level Salt Lake Center
04:37PM 41.1897 -118.7111 204° Southwest 403 464 36,000  Level Salt Lake Center
04:38PM 41.0914 -118.7678 203° Southwest 401 461 36,000  Level Salt Lake Center
04:39PM 40.9783 -118.8344 204° Southwest 399 459 36,000  Level Salt Lake Center
04:40PM 40.8803 -118.8892 203° Southwest 399 459 36,000  Level Salt Lake Center
04:41PM 40.7828 -118.9467 204° Southwest 400 460 36,000  Level Salt Lake Center
04:42PM 40.6806 -119.0411 215° Southwest 405 466 36,000  Level Salt Lake Center
04:43PM 40.6042 -119.1644 231° Southwest 413 475 36,000  Level Oakland Center
04:44PM 40.5314 -119.2753 229° Southwest 405 466 36,000  Level Oakland Center
04:45PM 40.4606 -119.3861 230° Southwest 399 459 36,000  Level Oakland Center
04:46PM 40.3892 -119.4969 230° Southwest 400 460 36,000  Level Oakland Center
04:47PM 40.3186 -119.6061 230° Southwest 395 455 36,000  Level Oakland Center
04:48PM 40.2456 -119.7144 229° Southwest 398 458 36,000  Level Oakland Center
04:49PM 40.1633 -119.8428 230° Southwest 385 443 36,000  Level Oakland Center
04:50PM 40.0917 -119.9506 229° Southwest 391 450 36,000  Level Oakland Center
04:52PM 40.0214 -120.0583 230° Southwest 391 450 36,000  Level Oakland Center
04:53PM 39.9483 -120.1661 229° Southwest 386 444 36,000 -540 Level Oakland Center
04:54PM 39.8756 -120.2742 229° Southwest 394 453 35,000 -540 Descending Oakland Center
04:55PM 39.8011 -120.3875 229° Southwest 408 470 35,000  Level Oakland Center
04:56PM 39.7264 -120.4994 229° Southwest 409 471 35,000  Level Oakland Center
04:57PM 39.6542 -120.6075 229° Southwest 398 458 35,000  Level Oakland Center
04:58PM 39.5669 -120.7358 229° Southwest 396 456 35,000  Level Oakland Center
04:59PM 39.4942 -120.8431 229° Southwest 396 456 35,000  Level Oakland Center
05:00PM 39.4219 -120.9489 229° Southwest 393 452 35,000  Level Oakland Center
05:01PM 39.3511 -121.0550 229° Southwest 391 450 35,000  Level Oakland Center
05:02PM 39.2792 -121.1611 229° Southwest 392 451 35,000  Level Oakland Center
05:03PM 39.2067 -121.2664 228° Southwest 393 452 35,000  Level Oakland Center
05:04PM 39.1339 -121.3714 228° Southwest 394 453 35,000  Level Oakland Center
05:05PM 39.0464 -121.5003 229° Southwest 399 459 35,000  Level Oakland Center
05:06PM 38.9725 -121.6064 228° Southwest 400 460 35,000  Level Oakland Center
05:07PM 38.8972 -121.7131 228° Southwest 403 464 35,000  Level Oakland Center
05:08PM 38.8233 -121.8208 229° Southwest 406 467 35,000  Level Oakland Center
05:09PM 38.7483 -121.9258 228° Southwest 403 464 35,000  Level Oakland Center
05:10PM 38.6703 -122.0372 228° Southwest 401 461 35,000  Level Oakland Center
05:11PM 38.5958 -122.1436 228° Southwest 402 463 35,000  Level Oakland Center
05:12PM 38.5225 -122.2467 228° Southwest 395 455 35,000 -720 Level Oakland Center
05:13PM 38.4481 -122.3517 228° Southwest 398 458 33,600 -2,640 Descending Oakland Center
05:14PM 38.3611 -122.4764 228° Southwest 396 456 29,700 -3,540 Descending Oakland Center
05:15PM 38.2883 -122.5775 227° Southwest 392 451 26,400 -3,420 Descending Oakland Center
05:16PM 38.2100 -122.6619 220° Southwest 372 428 22,800 -3,840 Descending Oakland Center
05:17PM 38.1092 -122.6697 183° South 360 414 18,600 -3,840 Descending Oakland Center
05:18PM 38.0147 -122.6717 181° South 347 399 15,000 -3,660 Descending Oakland Center
05:19PM 37.9081 -122.6697 179° South 334 384 11,200 -1,980 Descending Oakland Center
05:20PM 37.8442 -122.6125 145° Southeast 298 343 11,000 -120 Descending Oakland Center
05:21PM 37.7833 -122.5500 141° Southeast 294 338 11,000  Level Northern Cal TRACON
05:22PM 37.7333 -122.4833 133° Southeast 237 273 11,000  Level Northern Cal TRACON
05:23PM 37.6833 -122.4333 142° Southeast 235 270 11,000  Level Northern Cal TRACON
05:24PM 37.6333 -122.3833 142° Southeast 234 269 11,000 -420 Level Northern Cal TRACON
05:25PM 37.5667 -122.3500 158° South 237 273 10,200 -960 Descending Northern Cal TRACON
05:26PM 37.5000 -122.3167 158° South 232 267 9,100 -660 Descending Northern Cal TRACON
05:27PM 37.4500 -122.2833 152° Southeast 240 276 8,900 -840 Descending Northern Cal TRACON
05:28PM 37.4167 -122.2000 117° Southeast 235 270 7,500 -1,440 Descending Northern Cal TRACON
05:29PM 37.4500 -122.1500 50° Northeast 229 264 6,100 -1,320 Descending Northern Cal TRACON
05:30PM 37.5000 -122.1500 360° North 198 228 5,000 -1,260 Descending Northern Cal TRACON
05:31PM 37.5333 -122.1833 322° Northwest 199 229 3,600 -1,320 Descending Northern Cal TRACON
05:32PM 37.5667 -122.2500 302° West 190 219 2,300 -1,140 Descending Northern Cal TRACON
05:33PM 37.5833 -122.3000 293° West 141 162 1,400 -900 Descending Northern Cal TRACON
05:34PM 37.6000 -122.3333 302° West 125 144 500 -900 Descending Northern Cal TRACON